Main page
METAR-TAF:

METAR-TAF

Airports :

Zabol, Iran

Zabol Airport

latitude: 31-20N, longitude: 061-29E, elevation: 489 m

Current weather observation

The report was made 11 minutes ago, at 03:30 UTC
Wind 19 kt from the North/Northwest with gusts up to 29 kt
Temperature 17°C
Humidity 25%
Pressure 1019 hPa
Visibility: 6000 m

METAR: OIZB 290330Z 33019G29KT 6000 NSC 17/M03 Q1019

Time: 08:11 (03:41 UTC)


TAF: missing

Weather observations and forecasts of more than 4000 airports (METAR and TAF reports).

The available stations are represented by yellow and red dots on the map.

Hover mouse over dot to see the name of the station.

Then click to see weather observations and forecasts.

To change the map : click on the green buttons with a black cross to zoom in, on the green button with a dash to zoom out, or on the green arrows for adjacent maps.


METAR-TAF: